Time;durP1;ratioP1;P1;durP2;ratioP2;P2;SDS_P1;SDS_P2;PMS_P1;PMS_P2;Temp;Humidity;BMP_temperature;BMP_pressure;BME280_temperature;BME280_humidity;BME280_pressure;Samples;Min_cycle;Max_cycle;Signal;HPM_P1;HPM_P2
2021/06/01 00:01:28;;;;;;;1.17;0.22;;;20.20;45.60;;;;;;4975974;28;20039;-84
2021/06/01 00:03:54;;;;;;;0.93;0.10;;;20.20;45.60;;;;;;4975096;28;20042;-85
2021/06/01 00:06:20;;;;;;;0.10;0.00;;;20.20;45.70;;;;;;4990847;28;20099;-85
2021/06/01 00:08:46;;;;;;;0.08;0.00;;;20.20;45.70;;;;;;4990879;28;20042;-85
2021/06/01 00:11:13;;;;;;;3.05;0.32;;;20.20;45.70;;;;;;4990465;28;20488;-85
2021/06/01 00:13:39;;;;;;;0.65;0.10;;;20.20;45.70;;;;;;4974496;28;20043;-85
2021/06/01 00:16:06;;;;;;;0.30;0.10;;;20.20;45.80;;;;;;4990709;28;20054;-85
2021/06/01 00:18:32;;;;;;;0.32;0.05;;;20.20;45.80;;;;;;4990583;28;20496;-85
2021/06/01 00:20:58;;;;;;;0.60;0.17;;;20.10;45.80;;;;;;4974561;28;20508;-85
2021/06/01 00:23:24;;;;;;;0.13;0.00;;;20.20;45.90;;;;;;4990435;28;20043;-85
2021/06/01 00:25:50;;;;;;;0.95;0.32;;;20.20;45.90;;;;;;4974079;28;20480;-86
2021/06/01 00:28:16;;;;;;;0.65;0.25;;;20.10;45.90;;;;;;4974748;28;20042;-86
2021/06/01 00:30:42;;;;;;;0.15;0.05;;;20.10;46.00;;;;;;4974238;28;20034;-85
2021/06/01 00:33:09;;;;;;;0.20;0.10;;;20.10;46.10;;;;;;4990081;28;20422;-85
2021/06/01 00:35:35;;;;;;;0.13;0.00;;;20.10;46.10;;;;;;4974117;28;20477;-85
2021/06/01 00:38:02;;;;;;;0.10;0.00;;;20.10;46.20;;;;;;4975556;28;20030;-85
2021/06/01 00:40:28;;;;;;;1.05;0.28;;;20.00;46.20;;;;;;4974851;28;20031;-85
2021/06/01 00:42:54;;;;;;;0.63;0.15;;;20.00;46.20;;;;;;4990426;28;20035;-86
2021/06/01 00:45:23;;;;;;;0.60;0.10;;;20.00;46.30;;;;;;4977105;28;20050;-85
2021/06/01 00:47:49;;;;;;;0.68;0.17;;;19.90;46.30;;;;;;4984628;28;20496;-85
2021/06/01 00:50:15;;;;;;;0.50;0.20;;;19.90;46.40;;;;;;4978178;28;20030;-85
2021/06/01 00:52:41;;;;;;;2.70;0.30;;;19.90;46.50;;;;;;4973972;28;20035;-85
2021/06/01 00:55:08;;;;;;;0.88;0.43;;;19.90;46.50;;;;;;4994341;28;20361;-86
2021/06/01 00:57:34;;;;;;;0.03;0.00;;;19.90;46.50;;;;;;4977605;28;20039;-85
2021/06/01 01:00:01;;;;;;;2.38;0.77;;;19.80;46.50;;;;;;4977971;28;20037;-85
2021/06/01 01:02:27;;;;;;;0.20;0.10;;;19.80;46.70;;;;;;4972982;28;20042;-86
2021/06/01 01:04:54;;;;;;;0.10;0.00;;;19.80;46.70;;;;;;4956267;28;20039;-85
2021/06/01 01:07:32;;;;;;;0.40;0.10;;;19.80;46.70;;;;;;4973604;28;20031;-85
2021/06/01 01:09:58;;;;;;;0.30;0.00;;;19.80;46.80;;;;;;4972576;28;20480;-86
2021/06/01 01:12:28;;;;;;;0.00;0.00;;;19.70;46.80;;;;;;4989340;28;20031;-85
2021/06/01 01:14:55;;;;;;;0.98;0.30;;;19.60;46.90;;;;;;4973572;28;20037;-85
2021/06/01 01:17:24;;;;;;;0.10;0.00;;;19.50;46.90;;;;;;4972945;28;20031;-85
2021/06/01 01:20:09;;;;;;;0.32;0.00;;;19.50;47.10;;;;;;4974527;28;20038;-85
2021/06/01 01:22:46;;;;;;;0.20;0.03;;;19.40;47.30;;;;;;4973279;28;20023;-85
2021/06/01 01:25:42;;;;;;;2.55;1.10;;;19.30;47.30;;;;;;4969604;28;20034;-86
2021/06/01 01:28:14;;;;;;;1.05;0.30;;;19.30;47.40;;;;;;4972312;28;20065;-85
2021/06/01 01:30:45;;;;;;;0.98;0.25;;;19.30;47.40;;;;;;4978836;28;20046;-84
2021/06/01 01:33:39;;;;;;;0.63;0.30;;;19.20;47.40;;;;;;4980486;28;20042;-85
2021/06/01 01:36:07;;;;;;;4.85;0.17;;;19.20;47.50;;;;;;4977662;28;20035;-85
2021/06/01 01:38:34;;;;;;;8.57;0.13;;;19.10;47.50;;;;;;4976948;28;20037;-85
2021/06/01 01:41:11;;;;;;;1.58;0.40;;;19.10;47.50;;;;;;4958457;28;20049;-85
2021/06/01 01:43:38;;;;;;;0.32;0.13;;;19.10;47.60;;;;;;4973149;28;20038;-85
2021/06/01 01:46:13;;;;;;;0.20;0.00;;;19.00;47.70;;;;;;4993260;28;20512;-85
2021/06/01 01:51:46;;;;;;;0.25;0.10;;;19.00;47.80;;;;;;4986868;28;20038;-86
2021/06/01 01:54:20;;;;;;;0.52;0.05;;;19.00;47.80;;;;;;4971499;28;20045;-85
2021/06/01 01:56:50;;;;;;;0.13;0.03;;;19.00;47.80;;;;;;4972215;28;20030;-85
2021/06/01 01:59:25;;;;;;;0.10;0.10;;;19.00;47.80;;;;;;4972566;28;20042;-86
2021/06/01 02:01:52;;;;;;;0.10;0.00;;;18.90;47.90;;;;;;4973670;28;20042;-85
2021/06/01 02:04:22;;;;;;;0.20;0.00;;;18.90;47.90;;;;;;4966977;28;20035;-85
2021/06/01 02:06:48;;;;;;;4.80;0.30;;;18.80;47.90;;;;;;4982855;28;20038;-85
2021/06/01 02:09:14;;;;;;;2.65;0.20;;;18.80;48.00;;;;;;4969996;28;20042;-85
2021/06/01 02:11:40;;;;;;;0.77;0.10;;;18.80;48.10;;;;;;4999787;28;20035;-85
2021/06/01 02:14:07;;;;;;;0.05;0.00;;;18.80;48.10;;;;;;4983808;28;20027;-85
2021/06/01 02:16:37;;;;;;;0.73;0.25;;;18.80;48.10;;;;;;4968381;28;20039;-85
2021/06/01 02:19:04;;;;;;;0.95;0.30;;;18.80;48.20;;;;;;4986672;28;20050;-86
2021/06/01 02:24:30;;;;;;;0.15;0.10;;;18.80;48.80;;;;;;4984675;28;20051;-86
2021/06/01 02:27:13;;;;;;;0.25;0.10;;;18.80;48.30;;;;;;4947119;28;20050;-85
2021/06/01 02:30:00;;;;;;;0.75;0.10;;;18.80;48.30;;;;;;4914903;29;20074;-83
2021/06/01 02:32:39;;;;;;;0.47;0.10;;;18.70;48.90;;;;;;4946469;28;20134;-86
2021/06/01 02:35:10;;;;;;;0.65;0.20;;;18.70;48.40;;;;;;4947094;28;20035;-85
2021/06/01 02:37:40;;;;;;;0.30;0.17;;;18.70;48.50;;;;;;4958153;28;20101;-85
2021/06/01 02:40:08;;;;;;;0.63;0.20;;;18.70;48.50;;;;;;4952097;29;20026;-85
2021/06/01 02:42:34;;;;;;;0.43;0.10;;;18.70;48.50;;;;;;4957177;28;20036;-85
2021/06/01 02:45:01;;;;;;;0.55;0.10;;;18.60;48.60;;;;;;4946630;29;20151;-85
2021/06/01 02:47:27;;;;;;;0.88;0.10;;;18.60;48.60;;;;;;4946829;28;20032;-85
2021/06/01 02:49:53;;;;;;;1.30;0.25;;;18.60;48.70;;;;;;4935515;29;20043;-85
2021/06/01 02:52:20;;;;;;;1.23;0.20;;;18.50;48.70;;;;;;4933292;28;20031;-85
2021/06/01 02:54:46;;;;;;;0.13;0.00;;;18.50;48.80;;;;;;4936031;29;20043;-85
2021/06/01 02:57:12;;;;;;;0.60;0.05;;;18.50;49.40;;;;;;4951487;29;20141;-85
2021/06/01 02:59:39;;;;;;;0.40;0.13;;;18.40;48.80;;;;;;4967449;28;20039;-85
2021/06/01 03:02:06;;;;;;;0.10;0.00;;;18.40;48.90;;;;;;4919068;29;20046;-85
2021/06/01 03:04:32;;;;;;;0.50;0.00;;;18.40;48.90;;;;;;4929358;29;20059;-85
2021/06/01 03:06:59;;;;;;;0.00;0.00;;;18.40;48.90;;;;;;4968799;28;20027;-85
2021/06/01 03:09:25;;;;;;;0.73;0.30;;;18.40;49.00;;;;;;4970310;28;20043;-85
2021/06/01 03:11:52;;;;;;;0.63;0.20;;;18.30;49.00;;;;;;4988309;28;20035;-85
2021/06/01 03:14:19;;;;;;;0.10;0.00;;;18.30;49.10;;;;;;4988251;28;20477;-85
2021/06/01 03:16:45;;;;;;;0.08;0.00;;;18.30;49.10;;;;;;4969707;28;20038;-85
2021/06/01 03:19:11;;;;;;;0.50;0.10;;;18.20;49.10;;;;;;4975905;28;20034;-85
2021/06/01 03:21:39;;;;;;;3.60;0.20;;;18.20;49.20;;;;;;4991505;28;20034;-85
2021/06/01 03:24:05;;;;;;;0.10;0.00;;;18.20;49.20;;;;;;4976426;28;20038;-85
2021/06/01 03:26:31;;;;;;;0.13;0.03;;;18.20;49.30;;;;;;4975442;28;20037;-85
2021/06/01 03:28:57;;;;;;;0.32;0.10;;;18.20;49.30;;;;;;4975452;28;20026;-83
2021/06/01 03:31:26;;;;;;;0.40;0.17;;;18.10;49.30;;;;;;4984154;28;20031;-85
2021/06/01 03:33:53;;;;;;;0.73;0.10;;;18.10;49.40;;;;;;4979137;28;20061;-85
2021/06/01 03:36:19;;;;;;;0.57;0.22;;;18.10;49.50;;;;;;4979166;28;20038;-85
2021/06/01 03:38:50;;;;;;;0.45;0.25;;;18.10;49.60;;;;;;4979638;28;20031;-85
2021/06/01 03:41:16;;;;;;;0.63;0.32;;;18.00;49.60;;;;;;4979439;28;20031;-85
2021/06/01 03:43:42;;;;;;;0.10;0.00;;;18.00;49.70;;;;;;4959216;28;20400;-84
2021/06/01 03:46:08;;;;;;;4.30;0.30;;;18.00;49.80;;;;;;5002337;28;20043;-84
2021/06/01 03:48:34;;;;;;;1.30;0.35;;;17.90;49.70;;;;;;4979600;28;20361;-84
2021/06/01 03:51:00;;;;;;;0.35;0.10;;;17.90;49.80;;;;;;4962806;28;20049;-85
2021/06/01 03:53:29;;;;;;;0.17;0.00;;;17.90;49.80;;;;;;4979316;28;20387;-85
2021/06/01 03:55:56;;;;;;;0.47;0.00;;;17.90;49.90;;;;;;4976641;28;20023;-85
2021/06/01 03:58:22;;;;;;;0.63;0.52;;;17.90;49.90;;;;;;4977434;28;20511;-84
2021/06/01 04:00:48;;;;;;;0.55;0.10;;;17.90;50.00;;;;;;4995004;28;20039;-85
2021/06/01 04:03:14;;;;;;;8.55;0.17;;;17.90;50.00;;;;;;4974223;28;20526;-85
2021/06/01 04:05:40;;;;;;;0.17;0.10;;;17.90;49.90;;;;;;4974528;28;20046;-85
2021/06/01 04:08:06;;;;;;;1.15;0.17;;;17.90;50.00;;;;;;4974732;28;20392;-83
2021/06/01 04:10:33;;;;;;;0.70;0.20;;;17.80;50.00;;;;;;4974587;28;20042;-85
2021/06/01 04:12:59;;;;;;;0.88;0.25;;;17.80;50.10;;;;;;4976149;28;20038;-85
2021/06/01 04:15:25;;;;;;;1.73;1.00;;;17.80;50.10;;;;;;4978425;28;20045;-85
2021/06/01 04:17:51;;;;;;;0.03;0.00;;;17.70;50.20;;;;;;4984284;28;20035;-85
2021/06/01 04:20:17;;;;;;;0.10;0.00;;;17.70;50.30;;;;;;4959692;28;20387;-85
2021/06/01 04:22:44;;;;;;;0.47;0.03;;;17.70;50.30;;;;;;4974524;28;20035;-85
2021/06/01 04:25:10;;;;;;;0.35;0.10;;;17.70;50.40;;;;;;4978847;28;20055;-85
2021/06/01 04:27:36;;;;;;;1.17;0.38;;;17.70;50.40;;;;;;4979676;28;20031;-85
2021/06/01 04:30:04;;;;;;;2.72;0.10;;;17.70;50.40;;;;;;4960989;28;20043;-79
2021/06/01 04:32:30;;;;;;;0.63;0.10;;;17.70;50.50;;;;;;4973677;28;20384;-84
2021/06/01 04:34:56;;;;;;;0.30;0.00;;;17.60;50.60;;;;;;4957232;28;20042;-84
2021/06/01 04:37:22;;;;;;;1.55;0.22;;;17.60;50.70;;;;;;4975700;28;20408;-85
2021/06/01 04:39:49;;;;;;;0.35;0.10;;;17.60;50.70;;;;;;4975709;28;20043;-86
2021/06/01 04:42:15;;;;;;;0.52;0.10;;;17.60;50.80;;;;;;4973951;28;20035;-85
2021/06/01 04:44:41;;;;;;;13.18;0.20;;;17.60;50.70;;;;;;4973804;28;20054;-85
2021/06/01 04:47:07;;;;;;;0.08;0.00;;;17.60;50.70;;;;;;4986135;28;20038;-85
2021/06/01 04:49:35;;;;;;;0.13;0.00;;;17.70;50.70;;;;;;4974956;28;20031;-85
2021/06/01 04:52:01;;;;;;;0.40;0.20;;;17.60;50.80;;;;;;5010836;28;20392;-85
2021/06/01 04:54:27;;;;;;;1.42;0.08;;;17.60;51.00;;;;;;4994159;28;20390;-84
2021/06/01 04:56:54;;;;;;;1.08;0.25;;;17.60;50.90;;;;;;4994167;28;20031;-84
2021/06/01 04:59:20;;;;;;;0.38;0.10;;;17.60;51.00;;;;;;4979171;28;20023;-85
2021/06/01 05:01:46;;;;;;;0.10;0.00;;;17.60;50.90;;;;;;4972867;28;20050;-85
2021/06/01 05:04:12;;;;;;;0.25;0.25;;;17.70;50.90;;;;;;4974178;28;20046;-85
2021/06/01 05:06:38;;;;;;;0.45;0.25;;;17.80;50.80;;;;;;4989822;28;20030;-85
2021/06/01 05:09:05;;;;;;;0.40;0.10;;;17.80;50.70;;;;;;4973699;28;20043;-85
2021/06/01 05:11:34;;;;;;;0.20;0.10;;;17.90;50.80;;;;;;4973411;28;20034;-85
2021/06/01 05:14:00;;;;;;;1.02;0.10;;;17.90;50.70;;;;;;4973476;28;20027;-85
2021/06/01 05:16:26;;;;;;;0.32;0.17;;;18.10;50.60;;;;;;4982104;28;20034;-85
2021/06/01 05:18:52;;;;;;;2.75;0.25;;;18.10;50.60;;;;;;4994202;28;20027;-85
2021/06/01 05:21:19;;;;;;;1.13;0.17;;;18.20;50.50;;;;;;5010043;28;20057;-85
2021/06/01 05:23:45;;;;;;;0.15;0.00;;;18.30;50.60;;;;;;4978536;28;20507;-85
2021/06/01 05:26:11;;;;;;;0.25;0.08;;;18.30;50.60;;;;;;4978199;28;20031;-85
2021/06/01 05:28:37;;;;;;;0.03;0.00;;;18.30;50.60;;;;;;4973606;28;20413;-85
2021/06/01 05:33:34;;;;;;;0.08;0.03;;;18.30;50.80;;;;;;4973011;28;20041;-84
2021/06/01 05:36:01;;;;;;;1.52;0.50;;;18.30;50.80;;;;;;4973189;28;20042;-85
2021/06/01 05:38:31;;;;;;;1.42;0.28;;;18.30;50.80;;;;;;4972995;28;20026;-85
2021/06/01 05:40:58;;;;;;;1.02;0.20;;;18.50;50.80;;;;;;4972928;28;20027;-85
2021/06/01 05:43:24;;;;;;;1.45;0.32;;;18.60;50.50;;;;;;4973021;28;20027;-85
2021/06/01 05:45:51;;;;;;;0.08;0.00;;;18.80;50.40;;;;;;4980187;28;20422;-83
2021/06/01 05:48:17;;;;;;;1.25;0.43;;;18.90;50.20;;;;;;4979773;28;20030;-84
2021/06/01 05:50:43;;;;;;;0.30;0.10;;;18.90;50.30;;;;;;4977087;28;20031;-84
2021/06/01 05:53:10;;;;;;;1.00;0.25;;;18.80;50.40;;;;;;4976468;28;20022;-84
2021/06/01 05:55:36;;;;;;;0.20;0.05;;;18.70;50.60;;;;;;4957323;28;20049;-84
2021/06/01 05:58:03;;;;;;;0.22;0.15;;;18.70;50.70;;;;;;5010212;28;20042;-84
2021/06/01 06:00:30;;;;;;;0.75;0.17;;;18.70;50.70;;;;;;4991983;28;20034;-85
2021/06/01 06:02:57;;;;;;;1.30;0.05;;;18.90;50.60;;;;;;4988627;28;20477;-84
2021/06/01 06:05:23;;;;;;;0.28;0.00;;;19.00;50.40;;;;;;4972585;28;20073;-84
2021/06/01 06:07:49;;;;;;;0.20;0.00;;;19.20;50.30;;;;;;4973692;28;20029;-84
2021/06/01 06:10:16;;;;;;;0.95;0.17;;;19.30;50.10;;;;;;4972620;28;20046;-84
2021/06/01 06:12:42;;;;;;;0.13;0.10;;;19.40;49.90;;;;;;4972747;28;20469;-85
2021/06/01 06:15:11;;;;;;;0.10;0.00;;;19.60;49.70;;;;;;4971534;28;20027;-84
2021/06/01 06:17:39;;;;;;;0.40;0.10;;;19.70;49.60;;;;;;4973503;28;20491;-83
2021/06/01 06:20:05;;;;;;;0.95;0.10;;;19.90;49.40;;;;;;4973389;28;20030;-85
2021/06/01 06:22:32;;;;;;;0.22;0.10;;;20.20;49.10;;;;;;4955742;28;20503;-85
2021/06/01 06:24:58;;;;;;;0.20;0.00;;;20.30;48.90;;;;;;4973946;28;20046;-85
2021/06/01 06:27:24;;;;;;;0.10;0.08;;;20.40;48.80;;;;;;4955314;28;20035;-84
2021/06/01 06:29:50;;;;;;;0.30;0.10;;;20.40;49.60;;;;;;4971654;28;20035;-85
2021/06/01 06:32:16;;;;;;;0.55;0.30;;;20.30;49.00;;;;;;4985207;28;20022;-85
2021/06/01 06:34:43;;;;;;;0.17;0.00;;;20.40;49.10;;;;;;4973429;28;20046;-84
2021/06/01 06:37:09;;;;;;;0.45;0.17;;;20.40;49.10;;;;;;5016501;28;20024;-84
2021/06/01 06:39:35;;;;;;;1.52;0.20;;;20.40;49.10;;;;;;4976289;28;20046;-85
2021/06/01 06:42:01;;;;;;;1.05;0.20;;;20.40;49.20;;;;;;4976320;28;20030;-85
2021/06/01 06:44:28;;;;;;;3.60;0.30;;;20.40;49.20;;;;;;4975616;28;20042;-84
2021/06/01 06:49:49;;;;;;;2.05;0.17;;;20.60;48.90;;;;;;4971473;28;20523;-85
2021/06/01 06:52:15;;;;;;;0.30;0.10;;;20.80;48.70;;;;;;4955053;28;20027;-85
2021/06/01 06:54:41;;;;;;;0.20;0.10;;;20.90;48.60;;;;;;4970232;28;20435;-84
2021/06/01 06:57:08;;;;;;;1.45;0.45;;;20.90;48.50;;;;;;4954907;28;20420;-85
2021/06/01 06:59:34;;;;;;;0.47;0.08;;;20.90;48.60;;;;;;4954367;28;20046;-84
2021/06/01 07:02:00;;;;;;;0.30;0.08;;;20.90;48.60;;;;;;4954261;28;20027;-85
2021/06/01 07:04:26;;;;;;;0.22;0.03;;;21.00;48.50;;;;;;4954791;28;20500;-85
2021/06/01 07:06:53;;;;;;;0.65;0.20;;;21.20;48.40;;;;;;4955209;28;20049;-85
2021/06/01 07:09:19;;;;;;;0.13;0.00;;;21.40;48.20;;;;;;4954633;28;20042;-85
2021/06/01 07:11:45;;;;;;;0.52;0.20;;;21.50;48.00;;;;;;4954281;28;20042;-86
2021/06/01 07:14:18;;;;;;;0.93;0.32;;;21.70;47.90;;;;;;4954788;28;20424;-85
2021/06/01 07:16:44;;;;;;;0.17;0.03;;;21.80;47.80;;;;;;4955212;28;20042;-85
2021/06/01 07:19:11;;;;;;;0.28;0.10;;;22.00;47.60;;;;;;4955194;28;20050;-85
2021/06/01 07:21:37;;;;;;;0.50;0.45;;;22.20;47.40;;;;;;4954847;28;20039;-83
2021/06/01 07:24:06;;;;;;;0.38;0.10;;;22.30;47.30;;;;;;4954435;28;20031;-83
2021/06/01 07:26:33;;;;;;;0.32;0.00;;;22.30;47.30;;;;;;4962713;28;20082;-85
2021/06/01 07:28:59;;;;;;;0.30;0.10;;;22.40;47.20;;;;;;4972699;28;20098;-86
2021/06/01 07:31:25;;;;;;;1.55;0.20;;;22.40;47.10;;;;;;4964650;28;20031;-83
2021/06/01 07:33:51;;;;;;;0.10;0.00;;;22.50;47.10;;;;;;5008857;28;20384;-85
2021/06/01 07:36:18;;;;;;;0.30;0.20;;;22.50;47.10;;;;;;4972892;28;20055;-85
2021/06/01 07:38:44;;;;;;;0.20;0.10;;;22.60;47.10;;;;;;4970105;28;20153;-86
2021/06/01 07:41:10;;;;;;;0.00;0.00;;;22.60;47.50;;;;;;4957801;28;20373;-85
2021/06/01 07:43:36;;;;;;;0.35;0.03;;;22.70;46.90;;;;;;4972125;28;20027;-85
2021/06/01 07:46:03;;;;;;;0.95;0.20;;;22.80;46.80;;;;;;4991846;28;20167;-85
2021/06/01 07:48:35;;;;;;;0.80;0.20;;;22.90;46.80;;;;;;4971421;28;20110;-86
2021/06/01 07:51:02;;;;;;;0.25;0.10;;;22.90;46.60;;;;;;4986854;28;20027;-86
2021/06/01 07:53:28;;;;;;;0.30;0.10;;;23.00;46.60;;;;;;4970708;28;20396;-86
2021/06/01 07:55:54;;;;;;;0.25;0.00;;;23.10;46.50;;;;;;4956527;28;20046;-86
2021/06/01 07:58:20;;;;;;;0.17;0.05;;;23.20;46.40;;;;;;4974998;28;20027;-85
2021/06/01 08:00:46;;;;;;;0.52;0.10;;;23.30;46.30;;;;;;4974904;28;20049;-86
2021/06/01 08:03:17;;;;;;;0.13;0.00;;;23.40;46.20;;;;;;4974800;28;20027;-85
2021/06/01 08:05:43;;;;;;;0.50;0.30;;;23.60;46.10;;;;;;4975767;28;20042;-86
2021/06/01 08:08:10;;;;;;;0.20;0.03;;;23.60;46.00;;;;;;4974859;28;20027;-86
2021/06/01 08:10:36;;;;;;;0.20;0.00;;;23.70;46.10;;;;;;4974428;28;20031;-86
2021/06/01 08:13:02;;;;;;;1.15;0.40;;;23.80;46.00;;;;;;4991481;28;20027;-86
2021/06/01 08:15:29;;;;;;;0.52;0.10;;;23.80;45.90;;;;;;4974234;28;20488;-85
2021/06/01 08:18:00;;;;;;;0.10;0.00;;;23.80;46.00;;;;;;4974390;28;20039;-86
2021/06/01 08:20:29;;;;;;;0.60;0.08;;;23.90;45.90;;;;;;4975316;28;20019;-86
2021/06/01 08:22:56;;;;;;;0.00;0.00;;;24.10;45.70;;;;;;4975637;28;20027;-86
2021/06/01 08:25:22;;;;;;;0.00;0.00;;;24.30;45.60;;;;;;4974410;28;20144;-86
2021/06/01 08:27:48;;;;;;;1.35;0.28;;;24.50;45.30;;;;;;4976096;28;20383;-86
2021/06/01 08:30:15;;;;;;;0.10;0.00;;;24.60;45.00;;;;;;4975713;28;20476;-86
2021/06/01 08:32:41;;;;;;;1.02;0.20;;;24.80;45.00;;;;;;4986268;28;20031;-82
2021/06/01 08:35:07;;;;;;;0.40;0.10;;;24.90;45.40;;;;;;4977588;28;20026;-86
2021/06/01 08:37:33;;;;;;;1.48;0.13;;;25.10;44.60;;;;;;4976412;28;20029;-85
2021/06/01 08:39:59;;;;;;;0.28;0.00;;;25.20;44.80;;;;;;4979803;28;20031;-85
2021/06/01 08:42:25;;;;;;;0.30;0.13;;;25.30;44.30;;;;;;4978302;28;20031;-85
2021/06/01 08:44:51;;;;;;;0.73;0.10;;;25.30;44.30;;;;;;4979446;28;20031;-85
2021/06/01 08:47:19;;;;;;;0.52;0.10;;;25.40;44.30;;;;;;4973644;28;20094;-85
2021/06/01 08:49:47;;;;;;;0.22;0.05;;;25.50;44.20;;;;;;4973978;28;20031;-86
2021/06/01 08:52:14;;;;;;;0.50;0.20;;;25.60;44.20;;;;;;4974293;28;20035;-84
2021/06/01 08:54:41;;;;;;;0.38;0.10;;;25.60;44.10;;;;;;4989055;28;20038;-85
2021/06/01 08:57:07;;;;;;;0.30;0.10;;;25.70;44.00;;;;;;4973866;28;20027;-86
2021/06/01 08:59:34;;;;;;;0.20;0.10;;;25.70;44.10;;;;;;4989851;28;20050;-86
2021/06/01 09:02:01;;;;;;;0.20;0.00;;;25.70;44.00;;;;;;4985047;28;20484;-86
2021/06/01 09:04:43;;;;;;;1.15;0.38;;;25.80;43.90;;;;;;4975509;28;20141;-84
2021/06/01 09:07:14;;;;;;;0.00;0.00;;;25.90;43.90;;;;;;5001386;28;20041;-86
2021/06/01 09:09:48;;;;;;;0.35;0.10;;;26.00;43.70;;;;;;4962111;28;20039;-86
2021/06/01 09:12:31;;;;;;;0.30;0.10;;;26.00;43.60;;;;;;4977874;28;20027;-86
2021/06/01 09:22:46;;;;;;;0.38;0.10;;;26.40;43.30;;;;;;4963138;28;20480;-87
2021/06/01 09:26:01;;;;;;;4.63;0.30;;;26.50;43.30;;;;;;4973945;28;20047;-86
2021/06/01 09:28:09;;;;;;;0.10;0.00;;;26.60;43.80;;;;;;4968992;28;20047;-87
2021/06/01 09:30:43;;;;;;;0.20;0.08;;;26.70;43.10;;;;;;4977033;28;20487;-86
2021/06/01 09:33:18;;;;;;;0.10;0.00;;;26.80;43.00;;;;;;4981500;28;20526;-87
2021/06/01 09:35:53;;;;;;;0.10;0.00;;;26.80;43.00;;;;;;4978513;28;20509;-86
2021/06/01 09:38:24;;;;;;;0.40;0.20;;;27.00;43.00;;;;;;4977074;28;20029;-85
2021/06/01 09:41:08;;;;;;;0.65;0.10;;;27.10;42.80;;;;;;4974038;28;20023;-86
2021/06/01 09:43:47;;;;;;;2.90;0.32;;;27.10;42.80;;;;;;4974833;28;20027;-87
2021/06/01 09:46:20;;;;;;;0.30;0.10;;;27.10;42.80;;;;;;4999089;28;20042;-86
2021/06/01 09:48:47;;;;;;;0.52;0.30;;;27.10;42.80;;;;;;5009389;28;20042;-86
2021/06/01 09:51:31;;;;;;;0.10;0.00;;;27.10;42.90;;;;;;5009153;28;20026;-87
2021/06/01 09:53:58;;;;;;;1.35;0.30;;;27.20;42.90;;;;;;4991956;28;20031;-86
2021/06/01 09:56:24;;;;;;;0.32;0.00;;;27.40;42.80;;;;;;4976965;28;20034;-87
2021/06/01 09:58:51;;;;;;;4.47;0.28;;;27.70;42.70;;;;;;4956790;28;20039;-87
2021/06/01 10:01:17;;;;;;;0.20;0.10;;;27.90;42.40;;;;;;4976771;28;20505;-87
2021/06/01 10:03:49;;;;;;;0.73;0.17;;;28.10;42.30;;;;;;4972928;28;20062;-87
2021/06/01 10:06:15;;;;;;;0.65;0.13;;;28.30;42.20;;;;;;4972175;28;20042;-86
2021/06/01 10:08:54;;;;;;;0.85;0.30;;;28.40;42.00;;;;;;4972407;28;20031;-87
2021/06/01 10:11:20;;;;;;;0.28;0.13;;;28.40;41.90;;;;;;4987523;28;20034;-86
2021/06/01 10:13:46;;;;;;;1.25;0.30;;;28.40;42.00;;;;;;4972454;28;20034;-87
2021/06/01 10:16:15;;;;;;;0.08;0.00;;;28.30;42.10;;;;;;4982118;28;20030;-86
2021/06/01 10:18:41;;;;;;;1.02;0.10;;;28.40;42.30;;;;;;4992691;28;20423;-87
2021/06/01 10:21:12;;;;;;;0.10;0.00;;;28.40;42.20;;;;;;4992356;28;20472;-86
2021/06/01 10:23:42;;;;;;;0.60;0.30;;;28.50;42.20;;;;;;5009210;28;20031;-86
2021/06/01 10:26:11;;;;;;;1.20;0.50;;;28.50;42.20;;;;;;4975924;28;20041;-86
2021/06/01 10:28:40;;;;;;;0.10;0.05;;;28.50;42.20;;;;;;4972665;28;20038;-86
2021/06/01 10:31:08;;;;;;;0.30;0.10;;;28.50;42.20;;;;;;4992490;28;20034;-87
2021/06/01 10:34:04;;;;;;;0.77;0.28;;;28.60;42.20;;;;;;4953053;28;20047;-87
2021/06/01 10:53:18;;;;;;;0.32;0.10;;;28.80;42.60;;;;;;4960899;28;20042;-87
2021/06/01 10:56:00;;;;;;;0.55;0.20;;;28.80;41.90;;;;;;4958072;28;20035;-85
2021/06/01 10:58:40;;;;;;;0.75;0.00;;;28.80;41.90;;;;;;4975381;28;20019;-87
2021/06/01 11:04:14;;;;;;;2.20;0.32;;;29.00;41.80;;;;;;4973820;28;20046;-87
2021/06/01 11:09:33;;;;;;;0.43;0.10;;;29.20;41.60;;;;;;4973795;28;20038;-87
2021/06/01 11:12:00;;;;;;;0.43;0.10;;;29.30;41.50;;;;;;4971670;28;20543;-87
2021/06/01 11:14:30;;;;;;;0.50;0.10;;;29.40;41.50;;;;;;4971736;28;20035;-87
2021/06/01 11:16:57;;;;;;;0.13;0.10;;;29.40;41.40;;;;;;4982490;28;20031;-87
2021/06/01 11:19:28;;;;;;;0.40;0.10;;;29.50;41.40;;;;;;4974076;28;20030;-87
2021/06/01 11:22:01;;;;;;;0.32;0.10;;;29.50;41.30;;;;;;5005490;28;20019;-87
2021/06/01 11:35:14;;;;;;;0.65;0.20;;;29.60;41.20;;;;;;4976872;28;20734;-87
2021/06/01 11:38:09;;;;;;;0.40;0.10;;;29.60;41.20;;;;;;4975302;28;20039;-87
2021/06/01 11:43:03;;;;;;;3.17;0.30;;;29.70;41.00;;;;;;4976899;28;20057;-87
2021/06/01 11:46:13;;;;;;;0.08;0.00;;;29.70;41.10;;;;;;4979204;28;20391;-85
2021/06/01 11:51:29;;;;;;;0.60;0.30;;;29.70;41.00;;;;;;4979259;28;20046;-87
2021/06/01 11:54:10;;;;;;;0.40;0.10;;;29.80;41.00;;;;;;4980271;28;20038;-87
2021/06/01 12:02:24;;;;;;;0.63;0.10;;;29.90;40.70;;;;;;4975090;28;20026;-87
2021/06/01 12:18:58;;;;;;;1.05;0.30;;;30.10;40.50;;;;;;4983686;28;20046;-87
2021/06/01 12:21:32;;;;;;;0.28;0.00;;;30.20;40.60;;;;;;4959544;28;20040;-87
2021/06/01 12:24:16;;;;;;;0.35;0.10;;;30.20;40.60;;;;;;4987754;28;20039;-86
2021/06/01 12:35:04;;;;;;;0.10;0.03;;;30.80;40.70;;;;;;4977336;28;20031;-87
2021/06/01 12:43:48;;;;;;;0.30;0.00;;;31.30;39.50;;;;;;4977716;28;20034;-86
2021/06/01 13:12:11;;;;;;;0.20;0.10;;;31.40;38.70;;;;;;4951291;28;20046;-86
2021/06/01 13:20:45;;;;;;;0.57;0.00;;;31.60;38.50;;;;;;4940509;29;20037;-86
2021/06/01 13:24:03;;;;;;;0.40;0.10;;;31.50;38.40;;;;;;4933517;29;20055;-86
2021/06/01 13:32:10;;;;;;;0.03;0.00;;;31.60;38.10;;;;;;4935237;28;20039;-86
2021/06/01 13:40:12;;;;;;;0.20;0.10;;;31.70;37.80;;;;;;4934010;29;20034;-87
2021/06/01 13:56:24;;;;;;;0.20;0.10;;;31.70;37.30;;;;;;4957482;28;20027;-86
2021/06/01 14:01:28;;;;;;;1.10;0.13;;;31.70;37.10;;;;;;4939237;28;20135;-86
2021/06/01 15:31:00;;;;;;;1.58;0.10;;;31.40;37.10;;;;;;4979410;28;20038;-86
2021/06/01 15:49:30;;;;;;;0.03;0.00;;;31.40;36.90;;;;;;4972955;28;20046;-86
2021/06/01 16:32:58;;;;;;;0.85;0.28;;;30.60;37.00;;;;;;4976055;28;20031;-86
2021/06/01 17:08:38;;;;;;;0.30;0.10;;;30.20;37.00;;;;;;4981181;28;20065;-87
2021/06/01 17:11:13;;;;;;;0.75;0.17;;;30.20;37.00;;;;;;4965126;28;20495;-86
2021/06/01 17:13:59;;;;;;;0.68;0.20;;;30.10;37.00;;;;;;4974186;28;20031;-84
2021/06/01 17:34:59;;;;;;;1.58;0.20;;;30.00;36.90;;;;;;4964601;28;20041;-86
2021/06/01 17:37:26;;;;;;;0.47;0.10;;;30.10;36.90;;;;;;4973034;28;20026;-86
2021/06/01 17:39:52;;;;;;;1.00;0.10;;;30.00;36.90;;;;;;4974581;28;20031;-86
2021/06/01 17:42:20;;;;;;;0.20;0.10;;;30.00;36.90;;;;;;4957316;28;20399;-85
2021/06/01 17:44:47;;;;;;;0.50;0.22;;;30.00;36.90;;;;;;4957046;28;20483;-84
2021/06/01 17:47:17;;;;;;;0.90;0.22;;;29.90;36.90;;;;;;4985954;28;20094;-86
2021/06/01 17:49:50;;;;;;;0.57;0.20;;;29.90;36.90;;;;;;4957515;28;20026;-86
2021/06/01 17:52:28;;;;;;;0.17;0.00;;;29.90;36.90;;;;;;5017573;28;20530;-86
2021/06/01 17:54:54;;;;;;;0.40;0.10;;;29.90;36.90;;;;;;4991501;28;20039;-86
2021/06/01 17:57:21;;;;;;;0.30;0.10;;;29.90;36.90;;;;;;5009525;28;20050;-87
2021/06/01 17:59:48;;;;;;;0.57;0.30;;;29.90;36.90;;;;;;5009410;28;20030;-86
2021/06/01 18:02:15;;;;;;;0.20;0.10;;;29.90;36.90;;;;;;5004744;28;20034;-85
2021/06/01 18:04:46;;;;;;;0.43;0.20;;;29.90;36.90;;;;;;4972358;28;20023;-86
2021/06/01 18:08:03;;;;;;;0.20;0.10;;;29.80;36.80;;;;;;4969306;28;20209;-86
2021/06/01 19:28:34;;;;;;;0.75;0.17;;;28.80;39.40;;;;;;4974911;28;20495;-86
2021/06/01 19:50:28;;;;;;;0.45;0.10;;;28.50;40.30;;;;;;4952723;28;20047;-87
2021/06/01 19:52:55;;;;;;;0.43;0.05;;;28.50;40.40;;;;;;4941193;29;20031;-86
2021/06/01 19:55:25;;;;;;;0.77;0.28;;;28.40;40.40;;;;;;4925669;29;20043;-85
2021/06/01 19:57:52;;;;;;;1.23;0.30;;;28.40;40.60;;;;;;4954656;29;20062;-84
2021/06/01 20:00:19;;;;;;;1.95;0.40;;;28.40;40.70;;;;;;4953753;28;20302;-86
2021/06/01 20:02:45;;;;;;;0.20;0.03;;;28.30;40.70;;;;;;4938550;29;20072;-86
2021/06/01 20:05:13;;;;;;;0.50;0.10;;;28.30;40.80;;;;;;4954533;29;20035;-86
2021/06/01 20:07:39;;;;;;;0.82;0.13;;;28.30;41.00;;;;;;4954574;29;20035;-87
2021/06/01 20:10:07;;;;;;;0.88;0.10;;;28.20;41.10;;;;;;4951229;28;20046;-87
2021/06/01 20:12:34;;;;;;;0.85;0.30;;;28.20;41.30;;;;;;5006890;28;20039;-86
2021/06/01 20:15:00;;;;;;;1.25;0.15;;;28.10;41.30;;;;;;4974251;28;20508;-87
2021/06/01 20:17:37;;;;;;;0.10;0.10;;;28.10;41.50;;;;;;4974371;28;20492;-86
2021/06/01 20:20:09;;;;;;;1.25;0.30;;;28.10;41.60;;;;;;4974584;28;20408;-87
2021/06/01 20:22:37;;;;;;;0.50;0.10;;;28.10;41.70;;;;;;4974755;28;20039;-86